createdAt,value
2023-06-07T00:02:03.363Z,72.42
2023-06-07T00:04:31.326Z,72.42
2023-06-07T00:07:01.953Z,72.49
2023-06-07T00:09:30.612Z,72.99
2023-06-07T00:11:57.364Z,72.68
2023-06-07T00:14:24.542Z,72.91
2023-06-07T00:16:55.996Z,72.89
2023-06-07T00:19:25.989Z,72.96
2023-06-07T00:21:53.358Z,73.30
2023-06-07T00:24:20.932Z,73.32
2023-06-07T00:26:48.112Z,72.90
2023-06-07T00:29:15.775Z,73.02
2023-06-07T00:31:42.322Z,73.32
2023-06-07T00:34:09.427Z,72.90
2023-06-07T00:36:37.555Z,73.82
2023-06-07T00:39:04.178Z,73.73
2023-06-07T00:41:30.836Z,73.63
2023-06-07T00:43:57.534Z,74.03
2023-06-07T00:46:29.802Z,73.58
2023-06-07T00:48:58.556Z,74.08
2023-06-07T00:51:29.196Z,73.71
2023-06-07T00:53:59.446Z,74.59
2023-06-07T00:56:27.446Z,74.24
2023-06-07T00:58:54.580Z,75.23
2023-06-07T01:01:21.108Z,75.00
2023-06-07T01:03:49.200Z,74.96
2023-06-07T01:06:38.067Z,75.03
2023-06-07T01:09:14.486Z,74.87
2023-06-07T01:11:47.509Z,75.25
2023-06-07T01:14:15.806Z,75.52
2023-06-07T01:16:47.699Z,75.31
2023-06-07T01:19:22.386Z,75.20
2023-06-07T01:21:52.585Z,75.49
2023-06-07T01:24:19.999Z,75.49
2023-06-07T01:26:48.843Z,75.87
2023-06-07T01:29:16.672Z,76.30
2023-06-07T01:31:44.230Z,76.10
2023-06-07T01:34:12.474Z,76.32
2023-06-07T01:36:40.861Z,75.76
2023-06-07T01:39:09.052Z,75.88
2023-06-07T01:41:37.107Z,76.01
2023-06-07T01:44:03.873Z,76.44
2023-06-07T01:46:30.612Z,76.97
2023-06-07T01:48:57.201Z,76.69
2023-06-07T01:51:23.647Z,76.21
2023-06-07T01:53:53.141Z,77.12
2023-06-07T01:56:26.929Z,76.20
2023-06-07T01:59:04.605Z,76.44
2023-06-07T02:02:02.530Z,76.64
2023-06-07T02:04:32.272Z,76.89
2023-06-07T02:07:05.679Z,77.24
2023-06-07T02:09:36.340Z,77.51
2023-06-07T02:12:04.141Z,77.65
2023-06-07T02:14:31.057Z,77.43
2023-06-07T02:16:57.572Z,77.60
2023-06-07T02:19:25.570Z,77.58
2023-06-07T02:21:52.211Z,78.10
2023-06-07T02:24:18.948Z,78.19
2023-06-07T02:26:45.859Z,78.14
2023-06-07T02:29:12.928Z,77.67
2023-06-07T02:31:39.501Z,77.83
2023-06-07T02:34:06.620Z,78.09
2023-06-07T02:36:34.374Z,78.43
2023-06-07T02:39:03.451Z,78.30
2023-06-07T02:41:29.999Z,78.36
2023-06-07T02:43:56.429Z,78.26
2023-06-07T02:46:23.459Z,78.16
2023-06-07T02:48:51.156Z,78.71
2023-06-07T02:51:17.800Z,78.33
2023-06-07T02:53:45.577Z,78.61
2023-06-07T02:56:14.482Z,78.59
2023-06-07T02:58:41.105Z,78.72
2023-06-07T03:01:08.267Z,79.01
2023-06-07T03:03:37.729Z,79.15
2023-06-07T03:06:11.026Z,79.03
2023-06-07T03:08:39.131Z,78.72
2023-06-07T03:11:07.987Z,79.16
2023-06-07T03:13:38.696Z,79.18
2023-06-07T03:16:09.297Z,79.29
2023-06-07T03:18:45.843Z,79.77
2023-06-07T03:21:12.498Z,79.43
2023-06-07T03:23:40.204Z,79.60
2023-06-07T03:26:08.581Z,79.58
2023-06-07T03:28:35.723Z,79.38
2023-06-07T03:31:04.211Z,79.50
2023-06-07T03:33:40.253Z,79.85
2023-06-07T03:36:08.465Z,80.21
2023-06-07T03:38:36.755Z,80.00
2023-06-07T03:41:04.131Z,80.36
2023-06-07T03:43:36.013Z,80.26
2023-06-07T03:46:02.555Z,80.25
2023-06-07T03:48:29.511Z,80.45
2023-06-07T03:50:57.146Z,80.13
2023-06-07T03:53:23.636Z,80.02
2023-06-07T03:55:53.253Z,79.98
2023-06-07T03:58:24.221Z,80.32
2023-06-07T04:00:50.871Z,80.19
2023-06-07T04:03:17.519Z,80.11
2023-06-07T04:05:44.366Z,80.21
2023-06-07T04:08:12.540Z,80.35
2023-06-07T04:10:42.031Z,79.78
2023-06-07T04:13:08.582Z,79.85
2023-06-07T04:15:35.187Z,80.29
2023-06-07T04:18:01.770Z,80.13
2023-06-07T04:20:29.400Z,80.25
2023-06-07T04:22:57.015Z,80.26
2023-06-07T04:25:32.839Z,79.83
2023-06-07T04:28:04.223Z,80.10
2023-06-07T04:30:42.126Z,80.23
2023-06-07T04:33:11.747Z,80.00
2023-06-07T04:35:45.453Z,79.99
2023-06-07T04:38:23.126Z,80.09
2023-06-07T04:40:54.133Z,79.69
2023-06-07T04:43:50.205Z,80.28
2023-06-07T04:46:23.085Z,80.02
2023-06-07T04:48:49.639Z,80.11
2023-06-07T04:51:21.592Z,80.10
2023-06-07T04:53:50.961Z,80.62
2023-06-07T04:56:22.668Z,80.15
2023-06-07T04:58:53.367Z,80.62
2023-06-07T05:01:23.586Z,80.68
2023-06-07T05:03:51.780Z,80.43
2023-06-07T05:06:19.973Z,79.90
2023-06-07T05:08:50.113Z,80.34
2023-06-07T05:11:16.634Z,80.40
2023-06-07T05:13:43.193Z,80.10
2023-06-07T05:16:16.960Z,80.42
2023-06-07T05:18:47.651Z,80.01
2023-06-07T05:21:16.225Z,80.21
2023-06-07T05:23:44.459Z,79.97
2023-06-07T05:26:11.864Z,79.54
2023-06-07T05:28:38.961Z,80.07
2023-06-07T05:31:05.954Z,79.66
2023-06-07T05:33:34.324Z,79.88
2023-06-07T05:36:01.198Z,80.20
2023-06-07T05:38:28.086Z,79.80
2023-06-07T05:40:57.848Z,79.84
2023-06-07T05:43:24.436Z,79.31
2023-06-07T05:45:50.993Z,79.25
2023-06-07T05:48:17.676Z,78.77
2023-06-07T05:50:44.268Z,79.06
2023-06-07T05:53:10.975Z,78.91
2023-06-07T05:55:37.739Z,78.09
2023-06-07T05:58:04.809Z,76.99
2023-06-07T06:00:32.772Z,74.93
2023-06-07T06:05:47.725Z,72.15
2023-06-07T06:08:16.724Z,70.83
2023-06-07T06:10:45.835Z,71.54
2023-06-07T06:13:14.662Z,70.33
2023-06-07T06:15:41.216Z,67.30
2023-06-07T10:53:01.939Z,40.99
2023-06-07T10:55:34.065Z,39.23
2023-06-07T10:58:01.311Z,40.26
2023-06-07T11:00:36.480Z,38.68
2023-06-07T11:03:06.239Z,38.31
2023-06-07T11:05:55.224Z,39.08
2023-06-07T11:08:29.069Z,39.25
2023-06-07T11:11:02.686Z,39.24
2023-06-07T11:13:44.850Z,39.02
2023-06-07T11:16:23.723Z,38.72
2023-06-07T11:18:54.685Z,37.08
2023-06-07T11:21:21.196Z,36.85
2023-06-07T11:24:14.297Z,38.58
2023-06-07T11:26:41.797Z,37.29
2023-06-07T11:29:09.744Z,37.34
2023-06-07T11:31:36.341Z,37.80
2023-06-07T11:34:03.676Z,37.39
2023-06-07T11:36:33.605Z,36.66
2023-06-07T11:39:07.035Z,38.07
2023-06-07T11:41:33.722Z,37.71
2023-06-07T11:44:03.159Z,37.50
2023-06-07T11:46:33.892Z,37.44
2023-06-07T11:49:10.879Z,36.82
2023-06-07T11:51:37.986Z,36.57
2023-06-07T11:54:04.664Z,37.50
2023-06-07T11:56:33.296Z,37.22
2023-06-07T11:59:00.002Z,36.51
2023-06-07T12:01:28.067Z,37.81
2023-06-07T12:03:57.087Z,37.44
2023-06-07T12:06:27.326Z,38.72
2023-06-07T12:08:53.936Z,38.04
2023-06-07T12:11:28.183Z,37.45
2023-06-07T12:13:55.081Z,38.66
2023-06-07T12:16:22.589Z,38.19
2023-06-07T12:18:49.602Z,37.24
2023-06-07T12:21:17.362Z,37.51
2023-06-07T12:23:52.648Z,38.00
2023-06-07T12:26:31.711Z,36.65
2023-06-07T12:29:02.092Z,36.43
2023-06-07T12:31:29.483Z,37.82
2023-06-07T12:34:04.415Z,37.11
2023-06-07T12:36:34.413Z,37.32
2023-06-07T12:39:10.290Z,38.63
2023-06-07T12:41:39.926Z,38.60
2023-06-07T12:44:10.998Z,38.30
2023-06-07T12:46:39.535Z,37.48
2023-06-07T12:49:07.299Z,38.05
2023-06-07T12:51:34.477Z,37.86
2023-06-07T12:54:02.813Z,36.52
2023-06-07T12:56:30.147Z,37.12
2023-06-07T12:58:56.602Z,37.56
2023-06-07T13:01:23.888Z,38.17
2023-06-07T13:03:51.115Z,37.79
2023-06-07T13:06:17.942Z,36.79
2023-06-07T13:08:45.194Z,36.96
2023-06-07T13:11:12.341Z,37.98
2023-06-07T13:13:39.060Z,38.50
2023-06-07T13:16:08.866Z,38.43
2023-06-07T13:18:39.934Z,37.79
2023-06-07T13:21:07.178Z,38.75
2023-06-07T13:23:34.465Z,38.65
2023-06-07T13:26:02.660Z,39.67
2023-06-07T13:28:29.221Z,38.86
2023-06-07T13:30:55.730Z,39.42
2023-06-07T13:33:22.371Z,39.77
2023-06-07T13:35:51.325Z,38.81
2023-06-07T13:38:20.134Z,38.91
2023-06-07T13:40:46.896Z,40.24
2023-06-07T13:43:14.096Z,39.39
2023-06-07T13:45:42.448Z,39.54
2023-06-07T13:50:52.785Z,39.80
2023-06-07T13:53:19.527Z,41.08
2023-06-07T13:55:48.308Z,40.49
2023-06-07T13:58:15.082Z,41.91
2023-06-07T14:00:42.308Z,42.98
2023-06-07T14:03:09.582Z,42.86
2023-06-07T14:05:36.406Z,42.79
2023-06-07T14:08:03.494Z,43.00
2023-06-07T14:10:30.697Z,42.73
2023-06-07T14:12:57.720Z,42.88
2023-06-07T14:15:26.131Z,43.85
2023-06-07T14:17:52.670Z,43.54
2023-06-07T14:20:19.437Z,42.12
2023-06-07T14:22:46.007Z,42.72
2023-06-07T14:25:14.726Z,43.46
2023-06-07T14:27:43.106Z,43.77
2023-06-07T14:30:09.902Z,43.78
2023-06-07T14:32:36.548Z,43.69
2023-06-07T14:35:04.732Z,44.62
2023-06-07T14:37:31.784Z,44.61
2023-06-07T14:39:58.495Z,43.84
2023-06-07T14:42:25.938Z,44.08
2023-06-07T14:44:56.813Z,44.65
2023-06-07T14:47:24.371Z,44.18
2023-06-07T14:49:52.569Z,44.01
2023-06-07T14:52:23.089Z,44.38
2023-06-07T14:54:49.832Z,44.96
2023-06-07T14:57:16.725Z,44.80
2023-06-07T14:59:43.565Z,45.84
2023-06-07T15:02:11.372Z,45.28
2023-06-07T15:04:38.422Z,45.45
2023-06-07T15:07:05.558Z,46.19
2023-06-07T15:09:32.696Z,45.58
2023-06-07T15:12:01.049Z,45.37
2023-06-07T15:14:27.577Z,46.62
2023-06-07T15:16:54.368Z,46.05
2023-06-07T15:19:21.225Z,46.46
2023-06-07T15:21:51.531Z,45.54
2023-06-07T15:24:18.647Z,46.44
2023-06-07T15:26:45.547Z,45.98
2023-06-07T15:29:12.292Z,46.29
2023-06-07T15:31:38.873Z,47.24
2023-06-07T15:34:05.594Z,46.98
2023-06-07T15:36:32.182Z,47.23
2023-06-07T15:38:58.745Z,46.83
2023-06-07T15:41:27.716Z,47.78
2023-06-07T15:43:54.945Z,47.15
2023-06-07T15:46:21.539Z,48.29
2023-06-07T15:48:51.373Z,48.20
2023-06-07T15:51:19.245Z,47.96
2023-06-07T15:53:47.507Z,48.33
2023-06-07T15:56:14.508Z,48.25
2023-06-07T15:58:43.225Z,47.95
2023-06-07T16:01:12.326Z,48.92
2023-06-07T16:03:54.262Z,48.50
2023-06-07T16:06:22.919Z,48.82
2023-06-07T16:08:49.440Z,48.91
2023-06-07T16:11:16.162Z,48.94
2023-06-07T16:13:42.802Z,49.19
2023-06-07T16:16:09.448Z,49.68
2023-06-07T16:18:37.735Z,49.65
2023-06-07T16:21:04.252Z,49.99
2023-06-07T16:23:31.210Z,49.99
2023-06-07T16:25:57.809Z,50.59
2023-06-07T16:28:24.353Z,50.39
2023-06-07T16:30:50.872Z,50.86
2023-06-07T16:33:19.546Z,50.48
2023-06-07T16:35:46.130Z,51.33
2023-06-07T16:38:12.601Z,51.21
2023-06-07T16:40:39.194Z,51.56
2023-06-07T16:43:06.081Z,51.19
2023-06-07T16:45:32.557Z,51.34
2023-06-07T16:47:59.449Z,50.97
2023-06-07T16:50:26.128Z,51.53
2023-06-07T16:52:52.699Z,52.22
2023-06-07T16:55:19.379Z,52.20
2023-06-07T16:57:46.089Z,52.22
2023-06-07T17:00:13.222Z,52.25
2023-06-07T17:02:39.928Z,52.64
2023-06-07T17:05:07.297Z,52.80
2023-06-07T17:07:34.272Z,52.97
2023-06-07T17:10:01.063Z,53.11
2023-06-07T17:12:27.549Z,53.48
2023-06-07T17:14:55.384Z,53.56
2023-06-07T17:17:22.067Z,53.23
2023-06-07T17:19:48.568Z,53.21
2023-06-07T17:22:15.363Z,53.68
2023-06-07T17:24:41.879Z,53.17
2023-06-07T17:27:08.548Z,53.11
2023-06-07T17:29:35.997Z,53.28
2023-06-07T17:32:02.892Z,52.66
2023-06-07T17:34:29.569Z,52.42
2023-06-07T17:36:56.250Z,52.70
2023-06-07T17:39:22.922Z,53.01
2023-06-07T17:41:49.999Z,52.53
2023-06-07T17:44:23.511Z,52.91
2023-06-07T17:47:17.064Z,53.27
2023-06-07T17:49:43.781Z,53.06
2023-06-07T17:52:21.427Z,52.92
2023-06-07T17:54:49.961Z,53.51
2023-06-07T17:57:17.972Z,53.80
2023-06-07T17:59:44.589Z,53.99
2023-06-07T18:02:11.391Z,53.97
2023-06-07T18:04:38.515Z,55.10
2023-06-07T18:07:05.838Z,54.49
2023-06-07T18:09:32.559Z,54.83
2023-06-07T18:12:01.692Z,55.98
2023-06-07T18:14:28.327Z,55.13
2023-06-07T18:16:54.865Z,55.25
2023-06-07T18:19:21.425Z,55.22
2023-06-07T18:21:47.879Z,55.40
2023-06-07T18:24:14.620Z,55.50
2023-06-07T18:26:41.613Z,56.34
2023-06-07T18:29:12.539Z,55.45
2023-06-07T18:31:39.094Z,55.49
2023-06-07T18:34:06.472Z,55.71
2023-06-07T18:36:33.109Z,55.88
2023-06-07T18:39:00.358Z,56.21
2023-06-07T18:41:28.141Z,56.19
2023-06-07T18:43:54.821Z,56.58
2023-06-07T18:46:22.837Z,56.38
2023-06-07T18:48:54.501Z,56.62
2023-06-07T18:51:21.035Z,56.65
2023-06-07T18:53:49.757Z,57.21
2023-06-07T18:56:17.975Z,56.89
2023-06-07T18:58:45.438Z,57.21
2023-06-07T19:01:13.312Z,57.11
2023-06-07T19:03:41.288Z,57.17
2023-06-07T19:06:09.291Z,57.44
2023-06-07T19:08:36.026Z,57.20
2023-06-07T19:11:03.237Z,56.89
2023-06-07T19:13:32.247Z,56.77
2023-06-07T19:15:58.824Z,56.68
2023-06-07T19:18:25.573Z,57.12
2023-06-07T19:20:52.099Z,57.02
2023-06-07T19:23:21.392Z,57.04
2023-06-07T19:25:47.903Z,56.90
2023-06-07T19:28:14.549Z,57.11
2023-06-07T19:30:48.518Z,56.62
2023-06-07T19:33:17.312Z,56.65
2023-06-07T19:35:43.856Z,56.92
2023-06-07T19:38:10.964Z,57.25
2023-06-07T19:40:37.447Z,57.52
2023-06-07T19:43:05.278Z,57.61
2023-06-07T19:45:31.854Z,57.45
2023-06-07T19:48:00.582Z,57.40
2023-06-07T19:50:28.590Z,57.94
2023-06-07T19:52:55.853Z,57.44
2023-06-07T19:55:22.545Z,58.21
2023-06-07T19:57:53.715Z,58.03
2023-06-07T20:00:23.650Z,58.61
2023-06-07T20:02:52.272Z,58.51
2023-06-07T20:05:21.156Z,58.39
2023-06-07T20:07:47.674Z,58.39
2023-06-07T20:10:14.888Z,59.12
2023-06-07T20:12:41.643Z,58.78
2023-06-07T20:15:19.017Z,58.51
2023-06-07T20:17:46.780Z,58.75
2023-06-07T20:20:15.077Z,58.98
2023-06-07T20:22:41.775Z,59.15
2023-06-07T20:25:08.832Z,58.96
2023-06-07T20:27:35.688Z,59.66
2023-06-07T20:30:02.527Z,59.89
2023-06-07T20:32:29.326Z,59.86
2023-06-07T20:34:55.884Z,59.97
2023-06-07T20:37:22.403Z,60.33
2023-06-07T20:39:48.947Z,60.20
2023-06-07T20:42:15.752Z,60.36
2023-06-07T20:44:52.586Z,60.17
2023-06-07T20:47:20.182Z,60.70
2023-06-07T20:49:46.727Z,60.33
2023-06-07T20:52:16.239Z,60.57
2023-06-07T20:54:43.711Z,60.36
2023-06-07T20:57:10.480Z,60.37
2023-06-07T20:59:47.149Z,60.79
2023-06-07T21:02:23.023Z,60.95
2023-06-07T21:04:50.017Z,61.91
2023-06-07T21:07:16.629Z,61.20
2023-06-07T21:09:43.181Z,61.58
2023-06-07T21:12:09.974Z,61.67
2023-06-07T21:14:36.563Z,61.86
2023-06-07T21:17:03.103Z,62.00
2023-06-07T21:19:32.478Z,62.11
2023-06-07T21:21:59.141Z,62.34
2023-06-07T21:24:25.613Z,62.72
2023-06-07T21:26:52.140Z,62.54
2023-06-07T21:29:19.058Z,62.53
2023-06-07T21:31:45.915Z,62.96
2023-06-07T21:34:13.675Z,63.00
2023-06-07T21:36:40.659Z,62.75
2023-06-07T21:39:07.159Z,63.00
2023-06-07T21:41:33.713Z,63.38
2023-06-07T21:44:00.269Z,63.23
2023-06-07T21:46:26.875Z,63.80
2023-06-07T21:48:53.359Z,64.15
2023-06-07T21:51:20.553Z,64.38
2023-06-07T21:53:47.443Z,64.35
2023-06-07T21:56:13.988Z,64.61
2023-06-07T21:58:40.611Z,64.58
2023-06-07T22:01:07.169Z,64.64
2023-06-07T22:03:33.801Z,64.92
2023-06-07T22:06:01.871Z,65.24
2023-06-07T22:08:28.995Z,65.61
2023-06-07T22:10:55.802Z,65.41
2023-06-07T22:13:22.427Z,65.36
2023-06-07T22:15:51.759Z,65.39
2023-06-07T22:18:19.671Z,65.13
2023-06-07T22:20:46.759Z,65.96
2023-06-07T22:23:14.528Z,65.93
2023-06-07T22:25:41.990Z,66.50
2023-06-07T22:28:14.736Z,66.66
2023-06-07T22:30:42.053Z,66.88
2023-06-07T22:33:09.569Z,66.90
2023-06-07T22:35:36.281Z,67.18
2023-06-07T22:38:06.463Z,67.04
2023-06-07T22:40:34.372Z,67.30
2023-06-07T22:43:01.523Z,67.43
2023-06-07T22:45:31.682Z,67.56
2023-06-07T22:48:05.984Z,67.44
2023-06-07T22:50:40.051Z,67.56
2023-06-07T22:53:12.377Z,67.82
2023-06-07T22:55:40.038Z,68.15
2023-06-07T22:58:07.113Z,67.82
2023-06-07T23:00:36.051Z,67.61
2023-06-07T23:03:04.931Z,68.10
2023-06-07T23:05:31.586Z,68.32
2023-06-07T23:08:00.627Z,68.49
2023-06-07T23:10:36.162Z,68.86
2023-06-07T23:13:09.191Z,69.10
2023-06-07T23:15:38.450Z,69.20
2023-06-07T23:18:05.325Z,69.20
2023-06-07T23:20:34.117Z,69.24
2023-06-07T23:23:04.097Z,69.29
2023-06-07T23:25:31.655Z,69.62
2023-06-07T23:27:59.188Z,69.66
2023-06-07T23:30:26.559Z,69.92
2023-06-07T23:32:53.441Z,69.72
2023-06-07T23:35:22.719Z,70.17
2023-06-07T23:37:49.616Z,70.11
2023-06-07T23:40:17.047Z,70.07
2023-06-07T23:42:44.934Z,70.36
2023-06-07T23:45:12.654Z,70.17
2023-06-07T23:47:39.257Z,70.72
2023-06-07T23:50:07.625Z,70.75
2023-06-07T23:52:35.345Z,71.02
2023-06-07T23:55:02.492Z,70.91
2023-06-07T23:57:29.058Z,70.90
2023-06-07T23:59:56.305Z,71.27
